Time;durP1;ratioP1;P1;durP2;ratioP2;P2;SDS_P1;SDS_P2;PMS_P1;PMS_P2;Temp;Humidity;BMP_temperature;BMP_pressure;BME280_temperature;BME280_humidity;BME280_pressure;Samples;Min_cycle;Max_cycle;Signal;HPM_P1;HPM_P2
2021/10/12 00:03:17;;;;;;;59.45;19.52;;;;;;;;;;8230978;28;20045;-72
2021/10/12 00:07:22;;;;;;;38.38;14.68;;;;;;;;;;8236600;28;20461;-72
2021/10/12 00:11:28;;;;;;;43.08;15.63;;;;;;;;;;8210510;28;20464;-71
2021/10/12 00:15:33;;;;;;;33.55;14.48;;;;;;;;;;8211487;28;20444;-71
2021/10/12 00:19:39;;;;;;;56.50;18.92;;;;;;;;;;8228031;28;20064;-72
2021/10/12 00:23:44;;;;;;;51.25;17.10;;;;;;;;;;8227187;28;20037;-71
2021/10/12 00:27:50;;;;;;;42.38;15.27;;;;;;;;;;8209389;28;20384;-72
2021/10/12 00:31:55;;;;;;;38.33;15.25;;;;;;;;;;8227521;28;20368;-72
2021/10/12 00:36:00;;;;;;;55.40;18.75;;;;;;;;;;8229149;28;20087;-71
2021/10/12 00:40:07;;;;;;;27.45;12.70;;;;;;;;;;8210811;28;20329;-72
2021/10/12 00:44:12;;;;;;;46.65;16.13;;;;;;;;;;8227856;28;20476;-71
2021/10/12 00:48:19;;;;;;;48.15;15.63;;;;;;;;;;8209155;28;20057;-72
2021/10/12 00:52:22;;;;;;;28.80;11.82;;;;;;;;;;8209348;28;20071;-72
2021/10/12 00:56:28;;;;;;;37.17;14.10;;;;;;;;;;8210448;28;20369;-71
2021/10/12 01:00:33;;;;;;;41.67;15.23;;;;;;;;;;8228132;28;20069;-72
2021/10/12 01:04:39;;;;;;;36.95;16.15;;;;;;;;;;8224552;28;20408;-72
2021/10/12 01:08:44;;;;;;;27.88;13.68;;;;;;;;;;8209575;28;20072;-71
2021/10/12 01:12:50;;;;;;;28.25;11.57;;;;;;;;;;8226923;28;20487;-72
2021/10/12 01:16:55;;;;;;;22.30;10.48;;;;;;;;;;8226463;28;20469;-72
2021/10/12 01:21:00;;;;;;;20.73;11.00;;;;;;;;;;8226067;28;20071;-72
2021/10/12 01:25:06;;;;;;;23.10;11.00;;;;;;;;;;8225896;28;20042;-72
2021/10/12 01:29:15;;;;;;;28.67;10.23;;;;;;;;;;8208452;28;20357;-72
2021/10/12 01:33:20;;;;;;;21.38;9.45;;;;;;;;;;8208636;28;20456;-71
2021/10/12 01:37:25;;;;;;;19.63;8.80;;;;;;;;;;8224044;28;20487;-71
2021/10/12 01:41:30;;;;;;;15.10;7.60;;;;;;;;;;8208798;28;20460;-72
2021/10/12 01:45:37;;;;;;;16.50;7.90;;;;;;;;;;8207994;28;20037;-71
2021/10/12 01:49:43;;;;;;;16.50;7.57;;;;;;;;;;8210188;28;20334;-72
2021/10/12 01:53:48;;;;;;;21.58;9.80;;;;;;;;;;8226075;28;20352;-72
2021/10/12 01:57:53;;;;;;;12.02;6.35;;;;;;;;;;8224906;28;20379;-72
2021/10/12 02:02:02;;;;;;;17.35;7.93;;;;;;;;;;8225088;28;20041;-72
2021/10/12 02:06:07;;;;;;;13.52;6.40;;;;;;;;;;8190974;28;20368;-72
2021/10/12 02:10:12;;;;;;;13.93;6.38;;;;;;;;;;8192315;28;20496;-72
2021/10/12 02:14:18;;;;;;;12.02;6.15;;;;;;;;;;8211460;28;20465;-71
2021/10/12 02:18:23;;;;;;;19.48;7.95;;;;;;;;;;8202694;28;20420;-72
2021/10/12 02:22:28;;;;;;;17.10;6.90;;;;;;;;;;8218321;28;20060;-72
2021/10/12 02:26:33;;;;;;;15.73;6.55;;;;;;;;;;8219043;28;20322;-72
2021/10/12 02:30:39;;;;;;;21.17;9.90;;;;;;;;;;8201079;28;20472;-72
2021/10/12 02:34:44;;;;;;;18.20;9.23;;;;;;;;;;8201396;28;20484;-72
2021/10/12 02:38:49;;;;;;;10.88;6.72;;;;;;;;;;8202790;28;20376;-71
2021/10/12 02:42:54;;;;;;;14.77;6.85;;;;;;;;;;8203850;28;20357;-72
2021/10/12 02:46:59;;;;;;;12.50;6.45;;;;;;;;;;8202992;28;20046;-72
2021/10/12 02:51:04;;;;;;;14.82;6.82;;;;;;;;;;8202954;28;20461;-71
2021/10/12 02:55:10;;;;;;;14.00;6.70;;;;;;;;;;8217996;28;20046;-71
2021/10/12 02:59:15;;;;;;;22.30;6.47;;;;;;;;;;8202646;28;20381;-72
2021/10/12 03:03:20;;;;;;;13.52;6.85;;;;;;;;;;8200520;28;20469;-72
2021/10/12 03:07:25;;;;;;;12.88;6.47;;;;;;;;;;8200094;28;20400;-72
2021/10/12 03:11:30;;;;;;;14.02;7.57;;;;;;;;;;8202889;28;20375;-72
2021/10/12 03:15:36;;;;;;;15.30;7.68;;;;;;;;;;8201826;28;20064;-72
2021/10/12 03:19:41;;;;;;;14.75;8.02;;;;;;;;;;8202514;28;20497;-71
2021/10/12 03:23:46;;;;;;;12.57;6.38;;;;;;;;;;8202073;28;20354;-72
2021/10/12 03:27:51;;;;;;;16.15;7.07;;;;;;;;;;8197584;28;20046;-72
2021/10/12 03:31:59;;;;;;;20.52;8.00;;;;;;;;;;8200537;28;20461;-72
2021/10/12 03:36:14;;;;;;;18.20;8.43;;;;;;;;;;8195931;28;20373;-72
2021/10/12 03:40:19;;;;;;;14.48;7.93;;;;;;;;;;8199637;28;20064;-73
2021/10/12 03:44:25;;;;;;;23.98;8.25;;;;;;;;;;8179024;28;20353;-72
2021/10/12 03:48:30;;;;;;;15.90;7.82;;;;;;;;;;8194941;28;20372;-71
2021/10/12 03:52:36;;;;;;;18.50;8.52;;;;;;;;;;8194907;28;20327;-72
2021/10/12 03:56:42;;;;;;;17.02;8.07;;;;;;;;;;8195272;28;20483;-72
2021/10/12 04:00:47;;;;;;;14.98;7.40;;;;;;;;;;8195350;28;20072;-72
2021/10/12 04:04:52;;;;;;;12.35;7.20;;;;;;;;;;8200945;28;20041;-71
2021/10/12 04:08:57;;;;;;;15.20;6.85;;;;;;;;;;8211268;28;20459;-72
2021/10/12 04:13:04;;;;;;;14.45;7.25;;;;;;;;;;8211443;28;20491;-72
2021/10/12 04:17:10;;;;;;;20.40;9.13;;;;;;;;;;8212130;28;20476;-72
2021/10/12 04:21:15;;;;;;;16.58;8.02;;;;;;;;;;8227680;28;20449;-72
2021/10/12 04:25:21;;;;;;;14.77;7.63;;;;;;;;;;8210736;28;20468;-71
2021/10/12 04:29:26;;;;;;;14.90;8.02;;;;;;;;;;8210913;28;20045;-72
2021/10/12 04:33:31;;;;;;;12.70;6.82;;;;;;;;;;8209258;28;20580;-72
2021/10/12 04:37:36;;;;;;;21.20;8.77;;;;;;;;;;8209316;28;20477;-72
2021/10/12 04:41:41;;;;;;;16.08;8.65;;;;;;;;;;8211788;28;20445;-72
2021/10/12 04:45:46;;;;;;;18.70;10.45;;;;;;;;;;8227329;28;20464;-72
2021/10/12 04:49:51;;;;;;;18.73;9.15;;;;;;;;;;8226273;28;20042;-73
2021/10/12 04:53:56;;;;;;;16.13;8.57;;;;;;;;;;8191148;28;20354;-72
2021/10/12 04:58:02;;;;;;;23.58;10.27;;;;;;;;;;8193688;28;20049;-72
2021/10/12 05:02:07;;;;;;;26.63;9.60;;;;;;;;;;8227054;28;20057;-72
2021/10/12 05:06:12;;;;;;;23.08;10.20;;;;;;;;;;8209324;28;20049;-72
2021/10/12 05:10:18;;;;;;;26.25;10.55;;;;;;;;;;8208534;28;20460;-72
2021/10/12 05:14:24;;;;;;;23.58;10.65;;;;;;;;;;8227736;28;20476;-71
2021/10/12 05:18:32;;;;;;;25.63;12.05;;;;;;;;;;8226074;28;20412;-71
2021/10/12 05:22:37;;;;;;;32.17;12.45;;;;;;;;;;8208303;28;20072;-72
2021/10/12 05:26:43;;;;;;;45.22;16.63;;;;;;;;;;8208698;28;20464;-72
2021/10/12 05:30:48;;;;;;;24.35;10.48;;;;;;;;;;8209433;28;20371;-72
2021/10/12 05:34:54;;;;;;;19.38;10.27;;;;;;;;;;8224996;28;20449;-72
2021/10/12 05:39:00;;;;;;;17.00;8.45;;;;;;;;;;8208337;28;20483;-71
2021/10/12 05:43:05;;;;;;;18.38;8.43;;;;;;;;;;8207373;28;20108;-71
2021/10/12 05:47:11;;;;;;;20.65;9.55;;;;;;;;;;8208424;28;20491;-72
2021/10/12 05:51:19;;;;;;;21.60;9.00;;;;;;;;;;8208241;28;20359;-71
2021/10/12 05:55:29;;;;;;;23.27;8.83;;;;;;;;;;8225520;28;20049;-72
2021/10/12 05:59:35;;;;;;;19.90;9.57;;;;;;;;;;8226784;28;20257;-72
2021/10/12 06:03:40;;;;;;;20.27;9.98;;;;;;;;;;8208809;28;20361;-72
2021/10/12 06:07:46;;;;;;;19.25;10.05;;;;;;;;;;8225395;28;20463;-72
2021/10/12 06:11:51;;;;;;;20.55;10.80;;;;;;;;;;8225377;28;20476;-72
2021/10/12 06:15:56;;;;;;;18.58;8.52;;;;;;;;;;8225780;28;20365;-71
2021/10/12 06:20:02;;;;;;;19.98;8.93;;;;;;;;;;8207539;28;20396;-72
2021/10/12 06:24:07;;;;;;;19.95;8.82;;;;;;;;;;8223171;28;20368;-71
2021/10/12 06:28:14;;;;;;;17.20;8.95;;;;;;;;;;8224150;28;20046;-72
2021/10/12 06:32:19;;;;;;;15.98;7.85;;;;;;;;;;8207632;28;20049;-72
2021/10/12 06:36:24;;;;;;;13.43;6.78;;;;;;;;;;8207976;28;20360;-72
2021/10/12 06:40:31;;;;;;;15.70;6.25;;;;;;;;;;8224462;28;20364;-72
2021/10/12 06:44:37;;;;;;;12.15;5.45;;;;;;;;;;8208173;28;20329;-71
2021/10/12 06:48:42;;;;;;;20.02;9.85;;;;;;;;;;8207229;28;20395;-71
2021/10/12 06:52:47;;;;;;;14.30;7.35;;;;;;;;;;8190333;28;20449;-72
2021/10/12 06:56:56;;;;;;;18.92;7.95;;;;;;;;;;8223347;28;20350;-72
2021/10/12 07:01:03;;;;;;;17.08;11.27;;;;;;;;;;8225581;28;20350;-72
2021/10/12 07:05:08;;;;;;;40.50;23.30;;;;;;;;;;8197793;28;20400;-72
2021/10/12 07:09:16;;;;;;;19.23;10.55;;;;;;;;;;8213479;28;20441;-71
2021/10/12 07:13:26;;;;;;;15.05;6.50;;;;;;;;;;8230912;28;20045;-72
2021/10/12 07:17:32;;;;;;;17.80;7.13;;;;;;;;;;8213083;28;20373;-71
2021/10/12 07:21:37;;;;;;;21.90;9.07;;;;;;;;;;8212964;28;20177;-72
2021/10/12 07:25:42;;;;;;;14.25;7.18;;;;;;;;;;8229198;28;20049;-72
2021/10/12 07:29:49;;;;;;;26.60;10.15;;;;;;;;;;8232623;28;20474;-72
2021/10/12 07:33:55;;;;;;;45.40;14.47;;;;;;;;;;8229144;28;20064;-72
2021/10/12 07:38:01;;;;;;;16.60;6.93;;;;;;;;;;8213204;28;20467;-72
2021/10/12 07:42:06;;;;;;;20.73;7.95;;;;;;;;;;8228723;28;20453;-71
2021/10/12 07:46:11;;;;;;;39.97;12.98;;;;;;;;;;8228594;28;20494;-72
2021/10/12 07:50:17;;;;;;;20.10;8.73;;;;;;;;;;8229794;28;20381;-72
2021/10/12 07:54:27;;;;;;;20.70;9.13;;;;;;;;;;8227600;28;20362;-72
2021/10/12 07:58:32;;;;;;;18.50;8.80;;;;;;;;;;8226286;28;20350;-72
2021/10/12 08:02:37;;;;;;;31.42;11.68;;;;;;;;;;8227605;28;20037;-71
2021/10/12 08:06:43;;;;;;;31.15;11.15;;;;;;;;;;8193505;28;20445;-72
2021/10/12 08:10:49;;;;;;;12.18;6.53;;;;;;;;;;8210512;28;20385;-72
2021/10/12 08:14:59;;;;;;;14.20;5.97;;;;;;;;;;8194839;28;20385;-72
2021/10/12 08:19:07;;;;;;;22.20;6.97;;;;;;;;;;8195820;28;20362;-72
2021/10/12 08:23:12;;;;;;;19.55;5.60;;;;;;;;;;8197660;28;20462;-72
2021/10/12 08:27:17;;;;;;;11.82;5.55;;;;;;;;;;8194224;28;20357;-73
2021/10/12 08:31:24;;;;;;;9.40;4.32;;;;;;;;;;8195119;28;20488;-72
2021/10/12 08:35:29;;;;;;;7.40;3.78;;;;;;;;;;8194343;28;20349;-73
2021/10/12 08:39:36;;;;;;;5.40;2.70;;;;;;;;;;8195937;28;20457;-73
2021/10/12 08:43:41;;;;;;;12.40;3.85;;;;;;;;;;8195014;28;20065;-73
2021/10/12 08:47:47;;;;;;;4.78;2.88;;;;;;;;;;8177683;28;20381;-73
2021/10/12 08:51:52;;;;;;;8.05;3.03;;;;;;;;;;8210241;28;20480;-72
2021/10/12 08:56:02;;;;;;;6.88;2.13;;;;;;;;;;8211276;28;20380;-72
2021/10/12 09:00:21;;;;;;;6.20;2.95;;;;;;;;;;8194176;28;20457;-73
2021/10/12 09:04:36;;;;;;;6.70;3.13;;;;;;;;;;8194450;28;20486;-73
2021/10/12 09:08:41;;;;;;;12.00;2.92;;;;;;;;;;8211529;28;20400;-72
2021/10/12 09:12:48;;;;;;;6.10;2.80;;;;;;;;;;8208663;28;20503;-72
2021/10/12 09:17:06;;;;;;;5.30;1.88;;;;;;;;;;8226497;28;20063;-73
2021/10/12 09:21:41;;;;;;;3.53;2.07;;;;;;;;;;8225992;28;20075;-72
2021/10/12 09:25:47;;;;;;;7.13;2.25;;;;;;;;;;8194401;28;20482;-72
2021/10/12 09:30:06;;;;;;;4.72;2.58;;;;;;;;;;8225057;28;20042;-72
2021/10/12 09:34:14;;;;;;;1.95;1.48;;;;;;;;;;8226833;28;20065;-72
2021/10/12 09:38:19;;;;;;;3.97;1.83;;;;;;;;;;8209577;28;20321;-72
2021/10/12 09:42:26;;;;;;;8.57;1.80;;;;;;;;;;8208771;28;20049;-72
2021/10/12 09:46:31;;;;;;;5.75;2.38;;;;;;;;;;8207396;28;20502;-73
2021/10/12 09:50:37;;;;;;;3.38;1.65;;;;;;;;;;8208335;28;20068;-73
2021/10/12 09:54:53;;;;;;;4.10;1.60;;;;;;;;;;8225195;28;20517;-72
2021/10/12 09:59:00;;;;;;;;;;;;;;;;;;8225774;28;20498;-73
2021/10/12 10:03:06;;;;;;;4.90;1.88;;;;;;;;;;8224572;28;20371;-72
2021/10/12 10:07:24;;;;;;;11.45;2.97;;;;;;;;;;8190788;28;20351;-73
2021/10/12 10:11:32;;;;;;;11.15;2.95;;;;;;;;;;8192433;28;20046;-73
2021/10/12 10:15:37;;;;;;;9.05;2.53;;;;;;;;;;8191318;28;20484;-72
2021/10/12 10:19:46;;;;;;;3.08;1.60;;;;;;;;;;8193570;28;20437;-74
2021/10/12 10:24:01;;;;;;;15.25;2.72;;;;;;;;;;8191599;28;20449;-72
2021/10/12 10:28:25;;;;;;;7.43;1.60;;;;;;;;;;8194496;28;20046;-73
2021/10/12 10:32:48;;;;;;;3.67;1.20;;;;;;;;;;8190709;28;20503;-73
2021/10/12 10:37:18;;;;;;;6.82;1.65;;;;;;;;;;8195362;28;20472;-73
2021/10/12 10:41:25;;;;;;;2.80;1.02;;;;;;;;;;8201269;28;20068;-73
2021/10/12 10:46:00;;;;;;;6.60;1.93;;;;;;;;;;8197076;28;20357;-72
2021/10/12 10:50:30;;;;;;;9.60;1.88;;;;;;;;;;8191312;28;20100;-72
2021/10/12 10:54:37;;;;;;;4.18;1.10;;;;;;;;;;8192236;28;20485;-73
2021/10/12 10:58:43;;;;;;;6.90;2.33;;;;;;;;;;8199997;28;20475;-73
2021/10/12 11:02:48;;;;;;;11.10;3.20;;;;;;;;;;8196631;28;20404;-72
2021/10/12 11:07:01;;;;;;;7.18;3.13;;;;;;;;;;8219889;28;20477;-73
2021/10/12 11:11:10;;;;;;;14.80;5.88;;;;;;;;;;8229384;28;20360;-73
2021/10/12 11:15:16;;;;;;;16.40;4.65;;;;;;;;;;8212546;28;20041;-73
2021/10/12 11:19:23;;;;;;;7.53;1.70;;;;;;;;;;8230264;28;20469;-73
2021/10/12 11:23:38;;;;;;;4.07;2.15;;;;;;;;;;8210405;28;20071;-72
2021/10/12 11:27:46;;;;;;;6.72;2.25;;;;;;;;;;8228557;28;20344;-73
2021/10/12 11:32:04;;;;;;;2.30;1.42;;;;;;;;;;8195780;28;20076;-74
2021/10/12 11:36:09;;;;;;;3.60;1.20;;;;;;;;;;8210535;28;20045;-72
2021/10/12 11:40:21;;;;;;;5.25;2.13;;;;;;;;;;8228573;28;20045;-73
2021/10/12 11:44:26;;;;;;;3.53;1.00;;;;;;;;;;8212055;28;20480;-73
2021/10/12 11:48:38;;;;;;;3.03;1.40;;;;;;;;;;8228484;28;20364;-73
2021/10/12 11:52:51;;;;;;;3.55;1.40;;;;;;;;;;8229231;28;20049;-73
2021/10/12 11:56:57;;;;;;;4.07;1.35;;;;;;;;;;8210744;28;20349;-73
2021/10/12 12:01:02;;;;;;;3.22;1.17;;;;;;;;;;8228433;28;20407;-73
2021/10/12 12:05:09;;;;;;;3.67;1.40;;;;;;;;;;8210704;28;20384;-73
2021/10/12 12:09:23;;;;;;;1.77;1.05;;;;;;;;;;8210843;28;20475;-72
2021/10/12 12:13:30;;;;;;;1.80;1.05;;;;;;;;;;8211029;28;20326;-73
2021/10/12 12:17:39;;;;;;;7.20;2.08;;;;;;;;;;8210548;28;20515;-73
2021/10/12 12:21:47;;;;;;;3.25;1.30;;;;;;;;;;8210249;28;20464;-73
2021/10/12 12:25:57;;;;;;;10.82;2.67;;;;;;;;;;8193617;28;20357;-73
2021/10/12 12:30:10;;;;;;;8.88;3.55;;;;;;;;;;8210389;28;20084;-72
2021/10/12 12:34:42;;;;;;;11.25;3.70;;;;;;;;;;8226057;28;20465;-72
2021/10/12 12:38:48;;;;;;;6.78;3.20;;;;;;;;;;8226626;28;20468;-74
2021/10/12 12:42:53;;;;;;;6.82;2.30;;;;;;;;;;8209356;28;20126;-73
2021/10/12 12:47:05;;;;;;;4.93;2.45;;;;;;;;;;8229603;28;20342;-74
2021/10/12 12:51:11;;;;;;;6.18;2.20;;;;;;;;;;8210956;28;20479;-71
2021/10/12 12:55:38;;;;;;;4.43;1.98;;;;;;;;;;8209897;28;20360;-73
2021/10/12 12:59:45;;;;;;;4.28;2.20;;;;;;;;;;8227148;28;20068;-73
2021/10/12 13:03:54;;;;;;;4.40;2.10;;;;;;;;;;8226643;28;20461;-72
2021/10/12 13:07:59;;;;;;;11.95;4.57;;;;;;;;;;8208688;28;20096;-73
2021/10/12 13:12:06;;;;;;;6.03;2.40;;;;;;;;;;8227291;28;20364;-72
2021/10/12 13:16:10;;;;;;;9.95;3.40;;;;;;;;;;8209204;28;20364;-72
2021/10/12 13:20:15;;;;;;;5.90;2.55;;;;;;;;;;8227025;28;20057;-72
2021/10/12 13:24:21;;;;;;;3.78;1.95;;;;;;;;;;8226441;28;20361;-73
2021/10/12 13:28:26;;;;;;;8.50;4.15;;;;;;;;;;8208364;28;20372;-72
2021/10/12 13:32:31;;;;;;;11.98;2.75;;;;;;;;;;8226285;28;20404;-72
2021/10/12 13:36:36;;;;;;;6.60;2.80;;;;;;;;;;8227778;28;20407;-72
2021/10/12 13:40:42;;;;;;;5.85;2.60;;;;;;;;;;8225720;28;20333;-71
2021/10/12 13:44:51;;;;;;;8.05;3.38;;;;;;;;;;8193045;28;20504;-72
2021/10/12 13:48:56;;;;;;;13.27;6.05;;;;;;;;;;8210877;28;20071;-71
2021/10/12 13:53:03;;;;;;;10.70;3.90;;;;;;;;;;8228141;28;20495;-72
2021/10/12 13:57:08;;;;;;;8.00;4.00;;;;;;;;;;8192618;28;20445;-72
2021/10/12 14:01:14;;;;;;;11.15;3.10;;;;;;;;;;8207843;28;20503;-71
2021/10/12 14:05:20;;;;;;;11.60;4.00;;;;;;;;;;8223554;28;20045;-72
2021/10/12 14:09:26;;;;;;;21.75;7.85;;;;;;;;;;8224821;28;20465;-72
2021/10/12 14:13:32;;;;;;;19.15;6.10;;;;;;;;;;8225394;28;20395;-72
2021/10/12 14:17:39;;;;;;;17.02;4.57;;;;;;;;;;8225109;28;20053;-72
2021/10/12 14:21:49;;;;;;;9.07;3.10;;;;;;;;;;8209144;28;20354;-72
2021/10/12 14:25:54;;;;;;;7.32;2.95;;;;;;;;;;8224160;28;20361;-72
2021/10/12 14:30:02;;;;;;;11.23;4.10;;;;;;;;;;8225649;28;20333;-71
2021/10/12 14:34:07;;;;;;;8.60;3.65;;;;;;;;;;8206900;28;20474;-72
2021/10/12 14:38:13;;;;;;;11.02;3.03;;;;;;;;;;8224152;28;20499;-73
2021/10/12 14:42:19;;;;;;;16.95;5.40;;;;;;;;;;8207227;28;20068;-73
2021/10/12 14:46:24;;;;;;;15.73;4.95;;;;;;;;;;8224911;28;20468;-73
2021/10/12 14:50:30;;;;;;;15.45;5.90;;;;;;;;;;8223827;28;20389;-73
2021/10/12 14:54:35;;;;;;;12.52;7.22;;;;;;;;;;8224269;28;20038;-73
2021/10/12 14:58:40;;;;;;;15.57;6.90;;;;;;;;;;8224575;28;20038;-72
2021/10/12 15:02:45;;;;;;;32.90;14.70;;;;;;;;;;8224190;28;20499;-73
2021/10/12 15:06:52;;;;;;;24.40;12.18;;;;;;;;;;8224623;28;20049;-72
2021/10/12 15:10:59;;;;;;;24.95;12.23;;;;;;;;;;8224527;28;20469;-72
2021/10/12 15:15:04;;;;;;;14.02;5.93;;;;;;;;;;8226141;28;20487;-72
2021/10/12 15:19:09;;;;;;;12.98;6.00;;;;;;;;;;8207395;28;20563;-72
2021/10/12 15:23:14;;;;;;;19.52;7.68;;;;;;;;;;8227576;28;20376;-72
2021/10/12 15:27:19;;;;;;;16.95;9.57;;;;;;;;;;8229526;28;20464;-73
2021/10/12 15:31:27;;;;;;;18.40;8.50;;;;;;;;;;8229460;28;20487;-73
2021/10/12 15:35:32;;;;;;;17.38;7.13;;;;;;;;;;8228860;28;20477;-73
2021/10/12 15:39:38;;;;;;;18.45;8.02;;;;;;;;;;8211841;28;20484;-72
2021/10/12 15:43:43;;;;;;;23.48;8.27;;;;;;;;;;8229462;28;20372;-72
2021/10/12 15:47:48;;;;;;;25.67;9.95;;;;;;;;;;8230172;28;20067;-73
2021/10/12 15:51:56;;;;;;;19.13;9.13;;;;;;;;;;8210412;28;20385;-73
2021/10/12 15:56:03;;;;;;;18.23;9.35;;;;;;;;;;8211244;28;20372;-72
2021/10/12 16:00:09;;;;;;;19.40;9.20;;;;;;;;;;8229139;28;20371;-72
2021/10/12 16:04:17;;;;;;;17.90;8.82;;;;;;;;;;8228417;28;20082;-72
2021/10/12 16:08:22;;;;;;;22.52;10.35;;;;;;;;;;8179113;28;20070;-73
2021/10/12 16:12:27;;;;;;;44.28;18.70;;;;;;;;;;8210964;28;20350;-73
2021/10/12 16:25:26;;;;;;;53.47;22.83;;;;;;;;;;8195583;28;20072;-72
2021/10/12 16:29:33;;;;;;;40.10;16.88;;;;;;;;;;8196405;28;20046;-72
2021/10/12 16:33:39;;;;;;;63.75;27.23;;;;;;;;;;8194309;28;20480;-73
2021/10/12 16:37:44;;;;;;;61.60;24.23;;;;;;;;;;8193340;28;20084;-73
2021/10/12 16:41:50;;;;;;;51.25;16.50;;;;;;;;;;8195106;28;20078;-73
2021/10/12 16:45:56;;;;;;;27.58;9.90;;;;;;;;;;8193691;28;20433;-72
2021/10/12 16:50:01;;;;;;;23.48;7.57;;;;;;;;;;8193547;28;20464;-72
2021/10/12 16:54:07;;;;;;;18.45;7.88;;;;;;;;;;8209112;28;20366;-73
2021/10/12 16:58:12;;;;;;;23.77;8.30;;;;;;;;;;8192957;28;20042;-71
2021/10/12 17:02:19;;;;;;;21.63;8.40;;;;;;;;;;8210418;28;20429;-73
2021/10/12 17:06:24;;;;;;;14.02;6.75;;;;;;;;;;8203859;28;20457;-72
2021/10/12 17:10:29;;;;;;;9.75;5.30;;;;;;;;;;8225261;28;20477;-73
2021/10/12 17:14:34;;;;;;;11.95;5.07;;;;;;;;;;8209609;28;20384;-72
2021/10/12 17:18:41;;;;;;;13.85;5.97;;;;;;;;;;8227462;28;20336;-73
2021/10/12 17:22:46;;;;;;;19.00;8.05;;;;;;;;;;8225865;28;20369;-72
2021/10/12 17:26:52;;;;;;;48.53;21.55;;;;;;;;;;8208370;28;20583;-72
2021/10/12 17:30:57;;;;;;;23.33;12.07;;;;;;;;;;8224193;28;20465;-72
2021/10/12 17:35:02;;;;;;;83.63;21.42;;;;;;;;;;8225335;28;20037;-72
2021/10/12 17:39:08;;;;;;;87.97;20.85;;;;;;;;;;8208291;28;20472;-72
2021/10/12 17:43:13;;;;;;;92.45;30.25;;;;;;;;;;8207688;28;20395;-74
2021/10/12 17:47:18;;;;;;;73.03;30.45;;;;;;;;;;8225890;28;20365;-72
2021/10/12 17:51:23;;;;;;;108.32;39.05;;;;;;;;;;8190692;28;20473;-73
2021/10/12 17:55:29;;;;;;;86.55;30.20;;;;;;;;;;8206945;28;20060;-72
2021/10/12 17:59:35;;;;;;;65.78;21.83;;;;;;;;;;8222767;28;20479;-72
2021/10/12 18:03:40;;;;;;;63.40;21.60;;;;;;;;;;8206786;28;20392;-72
2021/10/12 18:07:45;;;;;;;57.70;21.10;;;;;;;;;;8223931;28;20499;-72
2021/10/12 18:11:50;;;;;;;62.95;23.05;;;;;;;;;;8206282;28;20416;-72
2021/10/12 18:15:55;;;;;;;77.63;26.17;;;;;;;;;;8224818;28;20337;-73
2021/10/12 18:20:02;;;;;;;33.28;12.38;;;;;;;;;;8223957;28;20053;-72
2021/10/12 18:24:09;;;;;;;23.85;10.20;;;;;;;;;;8206732;28;20357;-73
2021/10/12 18:28:15;;;;;;;27.77;12.07;;;;;;;;;;8207308;28;20053;-72
2021/10/12 18:32:20;;;;;;;31.00;12.45;;;;;;;;;;8207206;28;20469;-73
2021/10/12 18:36:26;;;;;;;30.63;11.10;;;;;;;;;;8225249;28;20049;-72
2021/10/12 18:40:32;;;;;;;28.48;9.18;;;;;;;;;;8224866;28;20049;-73
2021/10/12 18:44:37;;;;;;;17.42;7.88;;;;;;;;;;8224926;28;20068;-72
2021/10/12 18:49:02;;;;;;;31.13;10.88;;;;;;;;;;8223483;28;20061;-72
2021/10/12 18:53:07;;;;;;;27.58;11.85;;;;;;;;;;8223802;28;20061;-72
2021/10/12 18:57:13;;;;;;;50.10;14.98;;;;;;;;;;8227576;28;20107;-72
2021/10/12 19:01:19;;;;;;;25.42;9.05;;;;;;;;;;8224221;28;20456;-72
2021/10/12 19:05:25;;;;;;;18.25;7.25;;;;;;;;;;8197353;28;20487;-72
2021/10/12 19:09:29;;;;;;;10.77;5.30;;;;;;;;;;8213802;28;20395;-73
2021/10/12 19:13:45;;;;;;;29.23;10.00;;;;;;;;;;8196872;28;20384;-73
2021/10/12 19:17:51;;;;;;;35.95;14.07;;;;;;;;;;8197719;28;20495;-72
2021/10/12 19:21:56;;;;;;;14.05;5.88;;;;;;;;;;8199330;28;20494;-73
2021/10/12 19:26:04;;;;;;;21.77;5.95;;;;;;;;;;8197892;28;20076;-73
2021/10/12 19:30:10;;;;;;;16.80;5.43;;;;;;;;;;8196197;28;20397;-72
2021/10/12 19:34:15;;;;;;;22.65;6.15;;;;;;;;;;8196436;28;20140;-72
2021/10/12 19:38:20;;;;;;;12.18;4.78;;;;;;;;;;8195766;28;20054;-72
2021/10/12 19:42:25;;;;;;;14.50;5.03;;;;;;;;;;8196482;28;20469;-72
2021/10/12 19:46:32;;;;;;;24.02;9.75;;;;;;;;;;8195590;28;20500;-71
2021/10/12 19:50:43;;;;;;;20.75;9.57;;;;;;;;;;8196022;28;20333;-72
2021/10/12 19:54:48;;;;;;;24.55;10.60;;;;;;;;;;8194120;28;20527;-72
2021/10/12 19:58:53;;;;;;;23.95;7.53;;;;;;;;;;8196040;28;20461;-72
2021/10/12 20:07:21;;;;;;;15.10;6.72;;;;;;;;;;8209293;28;20389;-72
2021/10/12 20:11:27;;;;;;;16.05;6.80;;;;;;;;;;8178542;28;20461;-72
2021/10/12 20:15:33;;;;;;;32.22;13.10;;;;;;;;;;8194283;28;20454;-72
2021/10/12 20:24:02;;;;;;;17.90;7.82;;;;;;;;;;8195096;28;20069;-72
2021/10/12 20:28:07;;;;;;;19.30;7.65;;;;;;;;;;8197863;28;20461;-72
2021/10/12 20:32:13;;;;;;;17.17;6.43;;;;;;;;;;8193077;28;20457;-72
2021/10/12 20:36:18;;;;;;;19.98;5.97;;;;;;;;;;8177979;28;20327;-73
2021/10/12 20:40:24;;;;;;;15.10;6.68;;;;;;;;;;8194204;28;20100;-73
2021/10/12 20:44:29;;;;;;;20.83;8.80;;;;;;;;;;8209934;28;20038;-73
2021/10/12 20:48:35;;;;;;;22.77;8.70;;;;;;;;;;8193961;28;20360;-73
2021/10/12 20:52:40;;;;;;;19.33;7.85;;;;;;;;;;8193244;28;20476;-75
2021/10/12 20:56:45;;;;;;;19.30;6.60;;;;;;;;;;8193867;28;20484;-74
2021/10/12 21:00:51;;;;;;;20.42;8.35;;;;;;;;;;8192049;28;20461;-73
2021/10/12 21:04:56;;;;;;;20.25;7.50;;;;;;;;;;8192932;28;20499;-74
2021/10/12 21:09:01;;;;;;;17.42;6.78;;;;;;;;;;8193033;28;20461;-73
2021/10/12 21:13:06;;;;;;;21.30;8.88;;;;;;;;;;8193040;28;20408;-74
2021/10/12 21:17:11;;;;;;;13.15;5.75;;;;;;;;;;8175860;28;20465;-74
2021/10/12 21:21:23;;;;;;;15.80;6.78;;;;;;;;;;8190512;28;20050;-73
2021/10/12 21:25:28;;;;;;;11.88;4.88;;;;;;;;;;8193909;28;20315;-74
2021/10/12 21:29:35;;;;;;;10.18;4.90;;;;;;;;;;8191857;28;20050;-74
2021/10/12 21:33:40;;;;;;;8.38;3.88;;;;;;;;;;8208059;28;20437;-74
2021/10/12 21:37:45;;;;;;;9.48;4.18;;;;;;;;;;8192388;28;20072;-74
2021/10/12 21:41:51;;;;;;;10.25;4.63;;;;;;;;;;8192912;28;20372;-74
2021/10/12 21:45:56;;;;;;;7.50;3.97;;;;;;;;;;8192809;28;20339;-74
2021/10/12 21:50:01;;;;;;;9.50;4.63;;;;;;;;;;8193156;28;20366;-74
2021/10/12 21:54:06;;;;;;;12.07;5.25;;;;;;;;;;8207736;28;20068;-74
2021/10/12 21:58:11;;;;;;;10.82;5.00;;;;;;;;;;8193826;28;20365;-74
2021/10/12 22:02:16;;;;;;;11.10;5.50;;;;;;;;;;8193015;28;20415;-74
2021/10/12 22:06:22;;;;;;;9.55;4.78;;;;;;;;;;8191632;28;20073;-74
2021/10/12 22:10:28;;;;;;;9.35;4.40;;;;;;;;;;8193023;28;20156;-74
2021/10/12 22:14:34;;;;;;;11.05;4.45;;;;;;;;;;8191742;28;20069;-74
2021/10/12 22:18:38;;;;;;;13.02;5.40;;;;;;;;;;8190546;28;20085;-74
2021/10/12 22:22:43;;;;;;;11.95;4.55;;;;;;;;;;8191912;28;20053;-74
2021/10/12 22:26:48;;;;;;;9.57;4.65;;;;;;;;;;8192228;28;20099;-74
2021/10/12 22:30:54;;;;;;;12.23;5.50;;;;;;;;;;8193336;28;20487;-74
2021/10/12 22:35:00;;;;;;;9.35;4.70;;;;;;;;;;8198454;28;20360;-74
2021/10/12 22:39:05;;;;;;;13.68;5.70;;;;;;;;;;8198806;28;20572;-74
2021/10/12 22:43:14;;;;;;;8.63;4.20;;;;;;;;;;8196695;28;20341;-74
2021/10/12 22:47:20;;;;;;;8.80;4.70;;;;;;;;;;8196774;28;20377;-74
2021/10/12 22:51:26;;;;;;;9.63;4.78;;;;;;;;;;8214083;28;20050;-74
2021/10/12 22:55:31;;;;;;;11.48;5.43;;;;;;;;;;8197496;28;20367;-74
2021/10/12 22:59:37;;;;;;;11.25;5.32;;;;;;;;;;8198142;28;20484;-75
2021/10/12 23:03:42;;;;;;;9.90;5.15;;;;;;;;;;8196326;28;20372;-75
2021/10/12 23:07:47;;;;;;;12.85;5.82;;;;;;;;;;8197394;28;20073;-74
2021/10/12 23:11:53;;;;;;;11.15;5.90;;;;;;;;;;8197990;28;20457;-75
2021/10/12 23:15:57;;;;;;;13.20;6.10;;;;;;;;;;8198317;28;20462;-74
2021/10/12 23:20:04;;;;;;;7.70;5.00;;;;;;;;;;8195316;28;20445;-75
2021/10/12 23:24:09;;;;;;;10.98;5.63;;;;;;;;;;8196380;28;20449;-75
2021/10/12 23:28:14;;;;;;;12.07;5.95;;;;;;;;;;8212191;28;20361;-75
2021/10/12 23:32:19;;;;;;;16.67;6.30;;;;;;;;;;8196765;28;20357;-74
2021/10/12 23:36:24;;;;;;;15.88;6.78;;;;;;;;;;8196649;28;20373;-75
2021/10/12 23:40:30;;;;;;;9.48;5.53;;;;;;;;;;8195036;28;20477;-74
2021/10/12 23:44:35;;;;;;;9.10;5.25;;;;;;;;;;8209584;28;20483;-75
2021/10/12 23:48:40;;;;;;;11.65;4.55;;;;;;;;;;8194446;28;20046;-74
2021/10/12 23:52:45;;;;;;;10.40;4.75;;;;;;;;;;8195887;28;20346;-74
2021/10/12 23:56:50;;;;;;;12.50;5.50;;;;;;;;;;8198379;28;20477;-74
